• Join FlightAware (Why Join?)
  • Login
  • US Flag 
05:02PM EDT


 

Airport Tracker/Info


-or-


 

Live Flight TrackerFlight Track Log ✈ N100PM ✈ 30-Oct-2013 ✈ KELP - KIWA

Flight Track Log - Related Links

Times and Time Zones

All times are in EDT time to prevent confusion due to time zone crossing. See the N100PM flight status page for this flight to view local times or setup timezone preferences in your user account.

Time Position Orientation Groundspeed Altitude Reporting Facility
EDT Latitude Longitude Course Direction KTS MPH feet Rate Location/Type
02:44PM 31.8008 -106.3956 211° Southwest 54 62 4,600  Level Albuquerque Center
02:44PM 31.7953 -106.3994 211° Southwest 56 64 4,700 600 Climbing Albuquerque Center
02:45PM 31.7744 -106.4022 186° South 66 76 5,400 540 Climbing Albuquerque Center
02:46PM 31.7611 -106.4028 182° South 71 82 5,700 480 Climbing Albuquerque Center
02:46PM 31.7553 -106.4019 173° South 73 84 5,900 480 Climbing Albuquerque Center
02:47PM 31.7375 -106.4028 182° South 72 83 6,200 360 Climbing Albuquerque Center
02:47PM 31.7358 -106.4019 157° South 70 81 6,300 240 Climbing Albuquerque Center
02:48PM 31.7339 -106.4197 263° West 75 86 6,500 300 Climbing Albuquerque Center
02:48PM 31.7378 -106.4239 318° Northwest 75 86 6,600 240 Climbing Albuquerque Center
02:49PM 31.7408 -106.4439 280° West 77 89 6,800 240 Climbing Albuquerque Center
02:49PM 31.7433 -106.4550 285° West 94 108 6,900 240 Climbing Albuquerque Center
02:50PM 31.7475 -106.4683 290° West 78 90 7,100 180 Climbing Albuquerque Center
02:50PM 31.7506 -106.4706 328° Northwest 89 102 7,100 -120 Level Albuquerque Center
02:51PM 31.7556 -106.4933 284° West 80 92 7,000 60 Descending Albuquerque Center
02:51PM 31.7647 -106.5019 321° Northwest 87 100 7,200 480 Climbing Albuquerque Center
02:52PM 31.7742 -106.5142 312° West 85 98 7,500 480 Climbing Albuquerque Center
02:52PM 31.7867 -106.5167 350° North 94 108 7,700 360 Climbing Albuquerque Center
02:53PM 31.7983 -106.5344 308° West 87 100 7,900 180 Climbing Albuquerque Center
02:53PM 31.7975 -106.5414 262° West 93 107 7,900 60 Level Albuquerque Center
02:54PM 31.8067 -106.5572 304° West 81 93 8,000 180 Climbing Albuquerque Center
02:54PM 31.8100 -106.5633 303° West 80 92 8,100 360 Climbing Albuquerque Center
02:55PM 31.8292 -106.5739 335° Northwest 86 99 8,400 240 Climbing Albuquerque Center
02:55PM 31.8339 -106.5775 327° Northwest 100 115 8,400 240 Level Albuquerque Center
02:56PM 31.8558 -106.5867 340° North 94 108 8,700 360 Climbing Albuquerque Center
02:56PM 31.8597 -106.5911 316° Northwest 102 117 8,800 360 Climbing Albuquerque Center
02:57PM 31.8797 -106.6019 335° Northwest 97 112 9,100 360 Climbing Albuquerque Center
02:57PM 31.8819 -106.6081 293° West 98 113 9,200 360 Climbing Albuquerque Center
02:58PM 31.9033 -106.6172 340° North 97 112 9,500 360 Climbing Albuquerque Center
02:58PM 31.9122 -106.6231 331° Northwest 98 113 9,600 480 Climbing Albuquerque Center
02:59PM 31.9353 -106.6306 345° North 99 114 10,000 240 Climbing Albuquerque Center
03:00PM 31.9608 -106.6436 337° Northwest 100 115 10,100  Climbing Albuquerque Center
03:01PM 31.9886 -106.6603 333° Northwest 105 121 10,100 -60 Level Albuquerque Center
03:02PM 32.0225 -106.6717 344° North 115 132 10,000 -60 Descending Albuquerque Center
03:03PM 32.0522 -106.6844 340° North 117 135 10,000  Level Albuquerque Center
03:04PM 32.0594 -106.7111 288° West 96 110 10,100 -60 Climbing Albuquerque Center
03:05PM 32.0639 -106.7386 281° West 90 104 9,900  Descending Albuquerque Center
03:06PM 32.0769 -106.7708 296° West 90 104 10,100  Climbing Albuquerque Center
03:07PM 32.0847 -106.7972 289° West 87 100 10,000 -60 Descending Albuquerque Center
03:08PM 32.0914 -106.8228 287° West 84 97 10,000  Level Albuquerque Center
03:10PM 32.0956 -106.8469 282° West 80 92 10,100  Climbing Albuquerque Center
03:11PM 32.1028 -106.8744 287° West 82 94 10,000 -120 Descending Albuquerque Center
03:12PM 32.1100 -106.9019 287° West 86 99 9,900  Descending Albuquerque Center
03:13PM 32.1194 -106.9317 291° West 84 97 10,100 60 Climbing Albuquerque Center
03:14PM 32.1261 -106.9603 285° West 85 98 10,100  Level Albuquerque Center
03:15PM 32.1336 -106.9931 285° West 94 108 10,100 -60 Level Albuquerque Center
03:16PM 32.1414 -107.0239 287° West 98 113 10,000 -60 Descending Albuquerque Center
03:17PM 32.1503 -107.0544 289° West 98 113 10,000 -60 Level Albuquerque Center
03:18PM 32.1561 -107.0800 285° West 87 100 9,900  Descending Albuquerque Center
03:19PM 32.1639 -107.1047 290° West 81 93 10,000  Climbing Albuquerque Center
03:20PM 32.1703 -107.1372 283° West 84 97 10,000  Level Albuquerque Center
03:21PM 32.1764 -107.1619 286° West 80 92 10,000  Level Albuquerque Center
03:22PM 32.1822 -107.1883 285° West 81 93 10,000  Level Albuquerque Center
03:23PM 32.1883 -107.2156 285° West 85 98 10,100  Climbing Albuquerque Center
03:24PM 32.1944 -107.2431 285° West 86 99 10,000 -120 Descending Albuquerque Center
03:25PM 32.2056 -107.2747 293° West 98 113 9,900  Descending Albuquerque Center
03:26PM 32.2156 -107.3111 288° West 99 114 10,100  Climbing Albuquerque Center
03:27PM 32.2206 -107.3358 283° West 84 97 10,000  Descending Albuquerque Center
03:28PM 32.2258 -107.3644 282° West 86 99 10,200  Climbing Albuquerque Center
03:29PM 32.2319 -107.3936 284° West 90 104 10,000 -120 Descending Albuquerque Center
03:30PM 32.2397 -107.4219 288° West 90 104 10,000 -60 Level Albuquerque Center
03:31PM 32.2453 -107.4461 285° West 80 92 9,900  Descending Albuquerque Center
03:32PM 32.2539 -107.4731 291° West 84 97 10,000  Climbing Albuquerque Center
03:33PM 32.2608 -107.5036 285° West 82 94 9,900 -60 Descending Albuquerque Center
03:34PM 32.2647 -107.5300 280° West 80 92 9,900 -60 Level Albuquerque Center
03:35PM 32.2675 -107.5572 277° West 82 94 9,800  Descending Albuquerque Center
03:36PM 32.2703 -107.5828 277° West 80 92 9,900 120 Climbing Albuquerque Center
03:37PM 32.2692 -107.6086 267° West 80 92 10,100 60 Climbing Albuquerque Center
03:38PM 32.2658 -107.6367 262° West 82 94 10,100  Level Albuquerque Center
03:39PM 32.2725 -107.6700 283° West 84 97 10,100  Level Albuquerque Center
03:40PM 32.2764 -107.6958 280° West 84 97 10,200 -120 Climbing Albuquerque Center
03:42PM 32.2736 -107.7203 262° West 80 92 9,900 -180 Descending Albuquerque Center
03:43PM 32.2731 -107.7442 268° West 75 86 9,900 60 Level Albuquerque Center
03:44PM 32.2753 -107.7683 276° West 74 85 10,100  Climbing Albuquerque Center
03:45PM 32.2767 -107.7989 273° West 83 96 10,000  Descending Albuquerque Center
03:46PM 32.2767 -107.8328 270° West 85 98 10,100  Climbing Albuquerque Center
03:47PM 32.2753 -107.8606 267° West 85 98 10,000 -120 Descending Albuquerque Center
03:48PM 32.2761 -107.8856 272° West 82 94 9,900  Descending Albuquerque Center
03:49PM 32.2750 -107.9108 267° West 79 91 10,000  Climbing Albuquerque Center
03:50PM 32.2758 -107.9331 273° West 74 85 9,900 -120 Descending Albuquerque Center
03:51PM 32.2764 -107.9550 272° West 70 81 9,800  Descending Albuquerque Center
03:52PM 32.2778 -107.9764 274° West 67 77 10,000 120 Climbing Albuquerque Center
03:53PM 32.2775 -108.0031 269° West 67 77 10,100 60 Climbing Albuquerque Center
03:54PM 32.2778 -108.0275 271° West 70 81 10,200  Climbing Albuquerque Center
03:55PM 32.2781 -108.0525 271° West 74 85 10,100 -60 Descending Albuquerque Center
03:56PM 32.2769 -108.0761 267° West 73 84 10,100  Level Albuquerque Center
03:57PM 32.2753 -108.1031 266° West 77 89 10,100 -60 Level Albuquerque Center
03:58PM 32.2753 -108.1297 270° West 80 92 10,000 -60 Descending Albuquerque Center
03:59PM 32.2758 -108.1578 271° West 76 87 10,000  Level Albuquerque Center
04:00PM 32.2758 -108.1825 270° West 74 85 10,100  Climbing Albuquerque Center
04:01PM 32.2733 -108.2086 264° West 77 89 10,100  Level Albuquerque Center
04:02PM 32.2725 -108.2372 268° West 82 94 10,100 -60 Level Albuquerque Center
04:03PM 32.2722 -108.2658 269° West 85 98 10,000  Descending Albuquerque Center
04:04PM 32.2728 -108.2958 271° West 88 101 10,100  Climbing Albuquerque Center
04:05PM 32.2731 -108.3264 271° West 91 105 10,000  Descending Albuquerque Center
04:06PM 32.2764 -108.3617 276° West 89 102 10,100  Climbing Albuquerque Center
04:07PM 32.2769 -108.3931 271° West 93 107 10,100 -60 Level Albuquerque Center
04:08PM 32.2797 -108.4244 276° West 96 110 10,000  Descending Albuquerque Center
04:09PM 32.2792 -108.4558 269° West 94 108 10,100  Climbing Albuquerque Center
04:10PM 32.2794 -108.4847 271° West 90 104 10,100 -60 Level Albuquerque Center
04:11PM 32.2797 -108.5139 271° West 88 101 10,000  Descending Albuquerque Center
04:12PM 32.2806 -108.5394 272° West 82 94 10,100  Climbing Albuquerque Center
04:14PM 32.2775 -108.5683 263° West 75 86 10,100  Level Albuquerque Center
04:15PM 32.2792 -108.5942 274° West 77 89 10,100  Level Albuquerque Center
04:16PM 32.2772 -108.6211 265° West 81 93 10,100 120 Level Albuquerque Center
04:17PM 32.2761 -108.6489 267° West 84 97 10,400  Climbing Albuquerque Center
04:18PM 32.2778 -108.6811 274° West 95 109 10,200 -240 Descending Albuquerque Center
04:19PM 32.2806 -108.7131 276° West 97 112 10,000 -120 Descending Albuquerque Center
04:20PM 32.2825 -108.7400 275° West 87 100 10,000  Level Albuquerque Center
04:21PM 32.2836 -108.7694 273° West 77 89 10,100  Climbing Albuquerque Center
04:22PM 32.2850 -108.7919 274° West 70 81 10,100  Level Albuquerque Center
04:23PM 32.2853 -108.8169 271° West 74 85 10,100  Level Albuquerque Center
04:24PM 32.2844 -108.8417 268° West 75 86 10,100  Level Albuquerque Center
04:25PM 32.2853 -108.8669 272° West 76 87 10,100  Level Albuquerque Center
04:26PM 32.2858 -108.8939 271° West 80 92 10,100 -60 Level Albuquerque Center
04:27PM 32.2867 -108.9272 272° West 84 97 10,000 -120 Descending Albuquerque Center
04:28PM 32.2881 -108.9494 274° West 72 83 9,900  Descending Albuquerque Center
04:29PM 32.2856 -108.9736 263° West 72 83 10,100 60 Climbing Albuquerque Center
04:30PM 32.2842 -108.9983 266° West 75 86 10,100  Level Albuquerque Center
04:31PM 32.2836 -109.0231 268° West 75 86 10,200  Climbing Albuquerque Center
04:32PM 32.2833 -109.0489 269° West 77 89 10,200  Level Albuquerque Center
04:33PM 32.2822 -109.0767 267° West 82 94 10,200 -60 Level Albuquerque Center
04:34PM 32.2817 -109.1086 269° West 81 93 10,100 -180 Descending Albuquerque Center
04:35PM 32.2819 -109.1369 271° West 84 97 9,900 -60 Descending Albuquerque Center
04:36PM 32.2828 -109.1622 272° West 80 92 10,000 120 Climbing Albuquerque Center
04:37PM 32.2825 -109.1867 269° West 76 87 10,200  Climbing Albuquerque Center
04:38PM 32.2814 -109.2125 267° West 77 89 10,100 -60 Descending Albuquerque Center
04:39PM 32.2803 -109.2392 267° West 80 92 10,100 -120 Level Albuquerque Center
04:40PM 32.2872 -109.2642 288° West 79 91 9,900  Descending Albuquerque Center
04:41PM 32.2925 -109.2908 283° West 72 83 10,100 120 Climbing Albuquerque Center
04:42PM 32.2972 -109.3169 282° West 78 90 10,200  Climbing Albuquerque Center
04:43PM 32.3028 -109.3461 283° West 88 101 10,200 -60 Level Albuquerque Center
04:44PM 32.3106 -109.3731 289° West 88 101 10,100 -120 Descending Albuquerque Center
04:45PM 32.3161 -109.3967 286° West 78 90 10,000  Descending Albuquerque Center
04:46PM 32.3225 -109.4219 287° West 79 91 10,200  Climbing Albuquerque Center
04:48PM 32.3292 -109.4528 284° West 80 92 10,100  Descending Albuquerque Center
04:49PM 32.3339 -109.4758 284° West 75 86 10,200  Climbing Albuquerque Center
04:50PM 32.3411 -109.5014 289° West 77 89 10,200  Level Albuquerque Center
04:51PM 32.3486 -109.5297 287° West 84 97 10,200 -60 Level Albuquerque Center
04:52PM 32.3556 -109.5556 288° West 85 98 10,100 -60 Descending Albuquerque Center
04:53PM 32.3619 -109.5808 287° West 83 96 10,100  Level Albuquerque Center
04:54PM 32.3706 -109.6117 288° West 82 94 10,200  Climbing Albuquerque Center
04:55PM 32.3764 -109.6381 285° West 83 96 10,200 -60 Level Albuquerque Center
04:56PM 32.3819 -109.6667 283° West 85 98 10,100  Descending Albuquerque Center
04:57PM 32.3908 -109.6947 291° West 88 101 10,200  Climbing Albuquerque Center
04:58PM 32.3978 -109.7228 286° West 89 102 10,100 -60 Descending Albuquerque Center
04:59PM 32.4064 -109.7481 292° West 86 99 10,100  Level Albuquerque Center
05:00PM 32.4167 -109.7747 295° West 86 99 10,200 -120 Climbing Albuquerque Center
05:01PM 32.4258 -109.8056 289° West 86 99 9,900 -180 Descending Albuquerque Center
05:02PM 32.4308 -109.8311 283° West 84 97 9,900  Level Albuquerque Center
05:03PM 32.4347 -109.8561 280° West 81 93 10,000 120 Climbing Albuquerque Center
05:04PM 32.4358 -109.8828 273° West 81 93 10,200  Climbing Albuquerque Center
05:05PM 32.4386 -109.9139 276° West 87 100 10,100 -120 Descending Albuquerque Center
05:06PM 32.4456 -109.9436 285° West 90 104 10,000  Descending Albuquerque Center
05:07PM 32.4478 -109.9744 275° West 86 99 10,200 -60 Climbing Albuquerque Center
05:08PM 32.4447 -109.9992 262° West 82 94 9,900 -120 Descending Albuquerque Center
05:09PM 32.4425 -110.0233 264° West 77 89 10,000 60 Climbing Albuquerque Center
05:10PM 32.4419 -110.0481 268° West 75 86 10,100 180 Climbing Albuquerque Center
05:11PM 32.4469 -110.0736 283° West 76 87 10,400 180 Climbing Albuquerque Center
05:12PM 32.4558 -110.0997 292° West 79 91 10,500  Climbing Albuquerque Center
05:13PM 32.4606 -110.1319 280° West 83 96 10,500 -60 Level Albuquerque Center
05:14PM 32.4647 -110.1600 280° West 85 98 10,400 -120 Descending Albuquerque Center
05:15PM 32.4694 -110.1875 282° West 85 98 10,300 -180 Descending Albuquerque Center
05:16PM 32.4764 -110.2142 287° West 84 97 10,100 -120 Descending Albuquerque Center
05:17PM 32.4844 -110.2389 291° West 84 97 10,100  Level Albuquerque Center
05:19PM 32.4915 -110.2650 288° West  Level FlightAware Approximate
05:20PM 32.5031 -110.2978 288° West 76 87 10,200  Level Albuquerque Center
05:21PM 32.5083 -110.3289 281° West 93 107 10,100  Descending Albuquerque Center
05:22PM 32.5131 -110.3594 280° West 93 107 10,300 60 Climbing Albuquerque Center
05:23PM 32.5186 -110.3897 282° West 94 108 10,300 -60 Level Albuquerque Center
05:24PM 32.5292 -110.4211 292° West 99 114 10,200 -180 Descending Albuquerque Center
05:25PM 32.5381 -110.4503 290° West 98 113 10,000 -60 Descending Albuquerque Center
05:26PM 32.5483 -110.4839 290° West 94 108 10,100 60 Climbing Albuquerque Center
05:27PM 32.5547 -110.5142 284° West 93 107 10,200  Climbing Albuquerque Center
05:28PM 32.5642 -110.5486 288° West 100 115 10,100 -60 Descending Albuquerque Center
05:29PM 32.5722 -110.5825 286° West 104 120 10,100  Level Albuquerque Center
05:30PM 32.5778 -110.6203 280° West 108 124 10,100 60 Level Albuquerque Center
05:31PM 32.5856 -110.6589 283° West 105 121 10,300  Climbing Albuquerque Center
05:32PM 32.5958 -110.6897 292° West 103 119 10,200 -120 Descending Albuquerque Center
05:33PM 32.6039 -110.7197 288° West 100 115 10,100 -60 Descending Albuquerque Center
05:34PM 32.6103 -110.7489 285° West 95 109 10,100  Level Albuquerque Center
05:35PM 32.6161 -110.7750 285° West 87 100 10,200  Climbing Albuquerque Center
05:36PM 32.6236 -110.8022 288° West 86 99 10,200  Level Albuquerque Center
05:37PM 32.6356 -110.8386 291° West 93 107 10,200  Level Albuquerque Center
05:38PM 32.6469 -110.8686 294° West 98 113 10,200 -120 Level Albuquerque Center
05:39PM 32.6583 -110.8989 294° West 99 114 10,000 -120 Descending Albuquerque Center
05:40PM 32.6661 -110.9286 287° West 96 110 10,000  Level Albuquerque Center
05:41PM 32.6769 -110.9558 295° West 93 107 10,000  Level Albuquerque Center
05:42PM 32.6836 -110.9883 284° West 96 110 10,000  Level Albuquerque Center
05:43PM 32.6897 -111.0244 281° West 94 108 10,000  Level Albuquerque Center
05:44PM 32.7000 -111.0536 293° West 94 108 10,100  Climbing Albuquerque Center
05:45PM 32.7086 -111.0839 289° West 96 110 10,000 -120 Descending Albuquerque Center
05:46PM 32.7158 -111.1161 285° West 98 113 9,900  Descending Albuquerque Center
05:47PM 32.7211 -111.1508 280° West 101 116 10,000  Climbing Albuquerque Center
05:49PM 32.7292 -111.1808 288° West 100 115 9,900 -60 Descending Albuquerque Center
05:50PM 32.7461 -111.2131 302° West 98 113 9,900 -240 Level Albuquerque Center
05:51PM 32.7611 -111.2428 301° West 101 116 9,500 -480 Descending Albuquerque Center
05:52PM 32.7736 -111.2742 295° West 103 119 9,000 -540 Descending Albuquerque Center
05:53PM 32.7864 -111.3050 296° West 103 119 8,500 -540 Descending Albuquerque Center
05:54PM 32.7972 -111.3383 291° West 107 123 8,000 -300 Descending Albuquerque Center
05:55PM 32.8061 -111.3694 289° West 100 115 7,900  Descending Albuquerque Center
05:56PM 32.8183 -111.3986 297° West 100 115 8,000  Climbing Albuquerque Center
05:57PM 32.8306 -111.4364 291° West 102 117 8,000  Level Albuquerque Center
05:58PM 32.8392 -111.4672 288° West 94 108 8,000 -60 Level Albuquerque Center
05:59PM 32.8558 -111.4828 322° Northwest 90 104 7,900 -300 Descending Albuquerque Center
06:00PM 32.8864 -111.4767 10° North 107 123 7,400 -480 Descending Albuquerque Center
06:01PM 32.9172 -111.4783 357° North 113 130 7,000 -240 Descending Albuquerque Center
06:02PM 32.9542 -111.4772 North 109 125 7,000 -120 Level Albuquerque Center
06:03PM 32.9831 -111.4775 360° North 106 122 6,800 -300 Descending Albuquerque Center
06:04PM 33.0142 -111.4764 North 109 125 6,400 -420 Descending Albuquerque Center
06:05PM 33.0497 -111.4753 North 119 137 6,000 -240 Descending Albuquerque Center
06:06PM 33.0800 -111.4736 North 114 131 6,000  Level Albuquerque Center
06:07PM 33.1092 -111.4700 North 108 124 6,000 -300 Level Albuquerque Center
06:08PM 33.1419 -111.4697 360° North 114 131 5,500 -660 Descending Albuquerque Center
06:09PM 33.1717 -111.5017 318° Northwest 118 136 4,700 -780 Descending Albuquerque Center
06:10PM 33.1950 -111.5275 317° Northwest 114 131 4,000 -720 Descending Albuquerque Center
06:11PM 33.2156 -111.5542 313° West 111 128 3,300 -540 Descending Albuquerque Center
06:12PM 33.2342 -111.5761 315° West 96 110 3,000 -300 Descending Albuquerque Center
06:13PM 33.2519 -111.5939 320° Northwest 85 98 2,800 -420 Descending Albuquerque Center
06:14PM 33.2689 -111.6153 313° West 88 101 2,200 -540 Descending Albuquerque Center
06:15PM 33.2889 -111.6386 316° Northwest 86 99 1,700 -540 Descending Albuquerque Center
06:18PM 33.3078 -111.6555 323° Northwest  Level Estimated